Lewiston, ID (83501)

10:25 PM PST on January 29, 2015 (GMT -0800)
Hepton Lane | Change Station
CLOSE
Current Station
Personal Weather Station
Location: Lewiston, ID
Elevation: 1358 ft
Nearby Weather Stations

Elev 1358 ft 46.40 °N, 116.93 °W | Updated 12 seconds ago

Overcast
Overcast
38.1 °F
Feels Like 38 °F
N
0.4
Wind Variable Wind from NNE
Gusts 2.5 mph

Today
High -- | Low -- °F
--% Chance of Precip.
Yesterday
High -- | Low -- °F
Precip. -- in
7:14 AM 4:47 PM
Waxing Gibbous, 80% visible
Pressure 30.43 in
Visibility 10.0 miles
Clouds Overcast 1100 ft
Windchill 38 °F
Dew Point 34 °F
Humidity 84%
Rainfall 0.00 in
Snow Depth Not available.
UV 0.0 out of 12
Pollen 1.70 out of 12
Air Quality Not available.
Flu Activity Not available.
METAR KLWS 300556Z AUTO 00000KT 10SM OVC011 03/02 A3038 RMK AO2 SLP302 T00280022 10044 20017 50000

More Conditions Fewer Conditions

Pressure 30.43 in
Visibility 10.0 miles
Clouds Overcast 1100 ft
Windchill 38 °F
Dew Point 34 °F
Humidity 84%
Rainfall 0.00 in
Snow Depth Not available.
UV 0.0 out of 12
Pollen 1.70 out of 12
Air Quality Not available.
Flu Activity Not available.
METAR KLWS 300556Z AUTO 00000KT 10SM OVC011 03/02 A3038 RMK AO2 SLP302 T00280022 10044 20017 50000

More Conditions Fewer Conditions

10-Day Weather Forecast

Almanac

Astronomy

Jan. 29, 2015 Rise Set
Actual Time
Civil Twilight
Nautical Twilight
Astronomical Twilight
Moon
Length of Visible Light
Length of Day
Tomorrow will be .
, % of the Moon is Illuminated

Today's Extremes

State Highs State Lows

Community

WunderPhotos

Upload Photos

1,791,721 photos uploaded!

WunderBlogs® & News

Nearby

Air Quality

  Air Quality AQ Index Pollutant
Not available.

Snow Depth

Station Depth Elevation

Earthquake Activity

City Distance Mag. Time & Date
Minimum magnitude displayed is 2.5.

Coastal Water Temperatures

Place Temperature

Nearby Weather Stations